sensor_id;sensor_type;location;lat;lon;timestamp;temperature;humidity
4693;DHT22;11710;48.024;16.296;2022-09-13T00:01:03;16.00;99.90
4693;DHT22;11710;48.024;16.296;2022-09-13T00:03:30;16.00;99.90
4693;DHT22;11710;48.024;16.296;2022-09-13T00:05:57;16.00;99.90
4693;DHT22;11710;48.024;16.296;2022-09-13T00:08:27;16.00;99.90
4693;DHT22;11710;48.024;16.296;2022-09-13T00:10:54;16.00;99.90
4693;DHT22;11710;48.024;16.296;2022-09-13T00:13:21;15.90;99.90
4693;DHT22;11710;48.024;16.296;2022-09-13T00:15:48;15.90;99.90
4693;DHT22;11710;48.024;16.296;2022-09-13T00:18:16;15.90;99.90
4693;DHT22;11710;48.024;16.296;2022-09-13T00:20:44;15.80;99.90
4693;DHT22;11710;48.024;16.296;2022-09-13T00:23:11;15.80;99.90
4693;DHT22;11710;48.024;16.296;2022-09-13T00:25:40;15.80;99.90
4693;DHT22;11710;48.024;16.296;2022-09-13T00:28:07;15.80;99.90
4693;DHT22;11710;48.024;16.296;2022-09-13T00:30:33;15.80;99.90
4693;DHT22;11710;48.024;16.296;2022-09-13T00:33:00;15.70;99.90
4693;DHT22;11710;48.024;16.296;2022-09-13T00:35:31;15.70;99.90
4693;DHT22;11710;48.024;16.296;2022-09-13T00:37:59;15.60;99.90
4693;DHT22;11710;48.024;16.296;2022-09-13T00:40:26;15.50;99.90
4693;DHT22;11710;48.024;16.296;2022-09-13T00:42:56;15.50;99.90
4693;DHT22;11710;48.024;16.296;2022-09-13T00:45:23;15.40;99.90
4693;DHT22;11710;48.024;16.296;2022-09-13T00:47:54;15.40;99.90
4693;DHT22;11710;48.024;16.296;2022-09-13T00:50:24;15.30;99.90
4693;DHT22;11710;48.024;16.296;2022-09-13T00:52:56;15.30;99.90
4693;DHT22;11710;48.024;16.296;2022-09-13T00:55:27;15.20;99.90
4693;DHT22;11710;48.024;16.296;2022-09-13T00:58:07;15.20;99.90
4693;DHT22;11710;48.024;16.296;2022-09-13T01:00:35;15.20;99.90
4693;DHT22;11710;48.024;16.296;2022-09-13T01:03:06;15.10;99.90
4693;DHT22;11710;48.024;16.296;2022-09-13T01:05:36;15.10;99.90
4693;DHT22;11710;48.024;16.296;2022-09-13T01:08:05;15.10;99.90
4693;DHT22;11710;48.024;16.296;2022-09-13T01:10:40;15.10;99.90
4693;DHT22;11710;48.024;16.296;2022-09-13T01:13:12;15.10;99.90
4693;DHT22;11710;48.024;16.296;2022-09-13T01:15:42;15.10;99.90
4693;DHT22;11710;48.024;16.296;2022-09-13T01:18:09;15.10;99.90
4693;DHT22;11710;48.024;16.296;2022-09-13T01:20:45;15.10;99.90
4693;DHT22;11710;48.024;16.296;2022-09-13T01:27:00;15.00;99.90
4693;DHT22;11710;48.024;16.296;2022-09-13T01:32:28;14.90;99.90
4693;DHT22;11710;48.024;16.296;2022-09-13T01:35:08;14.80;99.90
4693;DHT22;11710;48.024;16.296;2022-09-13T01:37:49;14.80;99.90
4693;DHT22;11710;48.024;16.296;2022-09-13T01:40:28;14.80;99.90
4693;DHT22;11710;48.024;16.296;2022-09-13T01:43:10;14.70;99.90
4693;DHT22;11710;48.024;16.296;2022-09-13T01:45:45;14.60;99.90
4693;DHT22;11710;48.024;16.296;2022-09-13T01:48:20;14.50;99.90
4693;DHT22;11710;48.024;16.296;2022-09-13T01:50:55;14.60;99.90
4693;DHT22;11710;48.024;16.296;2022-09-13T01:53:31;14.50;99.90
4693;DHT22;11710;48.024;16.296;2022-09-13T01:56:03;14.40;99.90
4693;DHT22;11710;48.024;16.296;2022-09-13T01:58:38;14.30;99.90
4693;DHT22;11710;48.024;16.296;2022-09-13T02:01:11;14.20;99.90
4693;DHT22;11710;48.024;16.296;2022-09-13T02:03:44;14.10;99.90
4693;DHT22;11710;48.024;16.296;2022-09-13T02:06:22;14.00;99.90
4693;DHT22;11710;48.024;16.296;2022-09-13T02:08:52;13.90;99.90
4693;DHT22;11710;48.024;16.296;2022-09-13T02:11:21;13.90;99.90
4693;DHT22;11710;48.024;16.296;2022-09-13T02:13:53;13.90;99.90
4693;DHT22;11710;48.024;16.296;2022-09-13T02:16:25;14.00;99.90
4693;DHT22;11710;48.024;16.296;2022-09-13T02:18:58;14.00;99.90
4693;DHT22;11710;48.024;16.296;2022-09-13T02:21:28;14.00;99.90
4693;DHT22;11710;48.024;16.296;2022-09-13T02:24:00;14.00;99.90
4693;DHT22;11710;48.024;16.296;2022-09-13T02:26:30;14.00;99.90
4693;DHT22;11710;48.024;16.296;2022-09-13T02:29:00;14.00;99.90
4693;DHT22;11710;48.024;16.296;2022-09-13T02:31:33;13.90;99.90
4693;DHT22;11710;48.024;16.296;2022-09-13T02:34:06;13.90;99.90
4693;DHT22;11710;48.024;16.296;2022-09-13T02:36:37;13.90;99.90
4693;DHT22;11710;48.024;16.296;2022-09-13T02:39:07;13.80;99.90
4693;DHT22;11710;48.024;16.296;2022-09-13T02:41:42;13.80;99.90
4693;DHT22;11710;48.024;16.296;2022-09-13T02:44:17;13.70;99.90
4693;DHT22;11710;48.024;16.296;2022-09-13T02:46:57;13.70;99.90
4693;DHT22;11710;48.024;16.296;2022-09-13T02:49:29;13.60;99.90
4693;DHT22;11710;48.024;16.296;2022-09-13T02:52:08;13.50;99.90
4693;DHT22;11710;48.024;16.296;2022-09-13T02:54:41;13.50;99.90
4693;DHT22;11710;48.024;16.296;2022-09-13T02:57:14;13.40;99.90
4693;DHT22;11710;48.024;16.296;2022-09-13T02:59:45;13.40;99.90
4693;DHT22;11710;48.024;16.296;2022-09-13T03:02:14;13.40;99.90
4693;DHT22;11710;48.024;16.296;2022-09-13T03:04:43;13.40;99.90
4693;DHT22;11710;48.024;16.296;2022-09-13T03:07:11;13.40;99.90
4693;DHT22;11710;48.024;16.296;2022-09-13T03:09:44;13.40;99.90
4693;DHT22;11710;48.024;16.296;2022-09-13T03:12:25;13.40;99.90
4693;DHT22;11710;48.024;16.296;2022-09-13T03:15:03;13.40;99.90
4693;DHT22;11710;48.024;16.296;2022-09-13T03:17:44;13.40;99.90
4693;DHT22;11710;48.024;16.296;2022-09-13T03:20:17;13.30;99.90
4693;DHT22;11710;48.024;16.296;2022-09-13T03:23:16;13.20;99.90
4693;DHT22;11710;48.024;16.296;2022-09-13T03:26:07;13.20;99.90
4693;DHT22;11710;48.024;16.296;2022-09-13T03:28:42;13.20;99.90
4693;DHT22;11710;48.024;16.296;2022-09-13T03:31:17;13.20;99.90
4693;DHT22;11710;48.024;16.296;2022-09-13T03:33:50;13.20;99.90
4693;DHT22;11710;48.024;16.296;2022-09-13T03:36:24;13.20;99.90
4693;DHT22;11710;48.024;16.296;2022-09-13T03:38:56;13.20;99.90
4693;DHT22;11710;48.024;16.296;2022-09-13T03:41:30;13.20;99.90
4693;DHT22;11710;48.024;16.296;2022-09-13T03:44:01;13.20;99.90
4693;DHT22;11710;48.024;16.296;2022-09-13T03:46:32;13.20;99.90
4693;DHT22;11710;48.024;16.296;2022-09-13T03:49:01;13.20;99.90
4693;DHT22;11710;48.024;16.296;2022-09-13T03:51:32;13.20;99.90
4693;DHT22;11710;48.024;16.296;2022-09-13T03:54:03;13.20;99.90
4693;DHT22;11710;48.024;16.296;2022-09-13T03:56:31;13.20;99.90
4693;DHT22;11710;48.024;16.296;2022-09-13T03:59:00;13.10;99.90
4693;DHT22;11710;48.024;16.296;2022-09-13T04:01:27;13.10;99.90
4693;DHT22;11710;48.024;16.296;2022-09-13T04:03:55;13.10;99.90
4693;DHT22;11710;48.024;16.296;2022-09-13T04:06:22;13.10;99.90
4693;DHT22;11710;48.024;16.296;2022-09-13T04:08:50;13.10;99.90
4693;DHT22;11710;48.024;16.296;2022-09-13T04:11:17;13.00;99.90
4693;DHT22;11710;48.024;16.296;2022-09-13T04:13:46;13.00;99.90
4693;DHT22;11710;48.024;16.296;2022-09-13T04:16:12;13.00;99.90
4693;DHT22;11710;48.024;16.296;2022-09-13T04:18:39;12.90;99.90
4693;DHT22;11710;48.024;16.296;2022-09-13T04:21:07;12.90;99.90
4693;DHT22;11710;48.024;16.296;2022-09-13T04:23:34;12.80;99.90
4693;DHT22;11710;48.024;16.296;2022-09-13T04:26:03;12.80;99.90
4693;DHT22;11710;48.024;16.296;2022-09-13T04:28:31;12.80;99.90
4693;DHT22;11710;48.024;16.296;2022-09-13T04:30:57;12.70;99.90
4693;DHT22;11710;48.024;16.296;2022-09-13T04:33:24;12.70;99.90
4693;DHT22;11710;48.024;16.296;2022-09-13T04:35:56;12.80;99.90
4693;DHT22;11710;48.024;16.296;2022-09-13T04:38:23;12.80;99.90
4693;DHT22;11710;48.024;16.296;2022-09-13T04:40:55;12.80;99.90
4693;DHT22;11710;48.024;16.296;2022-09-13T04:43:23;12.90;99.90
4693;DHT22;11710;48.024;16.296;2022-09-13T04:45:50;12.90;99.90
4693;DHT22;11710;48.024;16.296;2022-09-13T04:48:17;13.00;99.90
4693;DHT22;11710;48.024;16.296;2022-09-13T04:50:44;13.00;99.90
4693;DHT22;11710;48.024;16.296;2022-09-13T04:53:12;13.10;99.90
4693;DHT22;11710;48.024;16.296;2022-09-13T04:55:39;13.10;99.90
4693;DHT22;11710;48.024;16.296;2022-09-13T04:58:05;13.10;99.90
4693;DHT22;11710;48.024;16.296;2022-09-13T05:00:34;13.20;99.90
4693;DHT22;11710;48.024;16.296;2022-09-13T05:03:01;13.30;99.90
4693;DHT22;11710;48.024;16.296;2022-09-13T05:05:28;13.40;99.90
4693;DHT22;11710;48.024;16.296;2022-09-13T05:07:56;13.60;99.90
4693;DHT22;11710;48.024;16.296;2022-09-13T05:10:23;13.80;99.90
4693;DHT22;11710;48.024;16.296;2022-09-13T05:12:51;14.00;99.90
4693;DHT22;11710;48.024;16.296;2022-09-13T05:15:18;14.20;99.90
4693;DHT22;11710;48.024;16.296;2022-09-13T05:17:46;14.60;99.90
4693;DHT22;11710;48.024;16.296;2022-09-13T05:20:13;15.50;99.90
4693;DHT22;11710;48.024;16.296;2022-09-13T05:22:40;17.50;99.90
4693;DHT22;11710;48.024;16.296;2022-09-13T05:25:07;19.90;99.90
4693;DHT22;11710;48.024;16.296;2022-09-13T05:27:34;21.70;99.90
4693;DHT22;11710;48.024;16.296;2022-09-13T05:30:01;23.10;99.90
4693;DHT22;11710;48.024;16.296;2022-09-13T05:32:30;24.90;99.90
4693;DHT22;11710;48.024;16.296;2022-09-13T05:34:58;27.10;98.00
4693;DHT22;11710;48.024;16.296;2022-09-13T05:37:25;29.20;94.20
4693;DHT22;11710;48.024;16.296;2022-09-13T05:39:52;31.10;90.70
4693;DHT22;11710;48.024;16.296;2022-09-13T05:42:18;32.90;84.00
4693;DHT22;11710;48.024;16.296;2022-09-13T05:44:45;34.50;78.20
4693;DHT22;11710;48.024;16.296;2022-09-13T05:49:39;37.20;68.60
4693;DHT22;11710;48.024;16.296;2022-09-13T05:52:07;38.40;64.60
4693;DHT22;11710;48.024;16.296;2022-09-13T05:54:34;39.50;61.70
4693;DHT22;11710;48.024;16.296;2022-09-13T05:57:02;40.50;58.90
4693;DHT22;11710;48.024;16.296;2022-09-13T05:59:29;41.50;56.80
4693;DHT22;11710;48.024;16.296;2022-09-13T06:01:57;42.40;54.00
4693;DHT22;11710;48.024;16.296;2022-09-13T06:04:24;43.30;51.70
4693;DHT22;11710;48.024;16.296;2022-09-13T06:06:51;44.10;49.90
4693;DHT22;11710;48.024;16.296;2022-09-13T06:09:19;44.40;47.00
4693;DHT22;11710;48.024;16.296;2022-09-13T06:11:46;44.60;46.40
4693;DHT22;11710;48.024;16.296;2022-09-13T06:14:13;44.90;45.70
4693;DHT22;11710;48.024;16.296;2022-09-13T06:16:39;45.60;45.10
4693;DHT22;11710;48.024;16.296;2022-09-13T06:19:07;46.10;43.70
4693;DHT22;11710;48.024;16.296;2022-09-13T06:21:34;46.40;43.10
4693;DHT22;11710;48.024;16.296;2022-09-13T06:24:01;46.90;42.40
4693;DHT22;11710;48.024;16.296;2022-09-13T06:26:29;47.00;41.30
4693;DHT22;11710;48.024;16.296;2022-09-13T06:28:57;47.40;41.10
4693;DHT22;11710;48.024;16.296;2022-09-13T06:31:25;47.70;40.30
4693;DHT22;11710;48.024;16.296;2022-09-13T06:33:55;47.80;39.60
4693;DHT22;11710;48.024;16.296;2022-09-13T06:36:23;48.00;39.40
4693;DHT22;11710;48.024;16.296;2022-09-13T06:38:50;47.70;39.10
4693;DHT22;11710;48.024;16.296;2022-09-13T06:41:18;47.50;38.60
4693;DHT22;11710;48.024;16.296;2022-09-13T06:43:52;47.10;39.00
4693;DHT22;11710;48.024;16.296;2022-09-13T06:46:19;45.90;39.20
4693;DHT22;11710;48.024;16.296;2022-09-13T06:48:46;43.70;40.10
4693;DHT22;11710;48.024;16.296;2022-09-13T06:51:15;41.40;42.30
4693;DHT22;11710;48.024;16.296;2022-09-13T06:53:44;39.40;44.10
4693;DHT22;11710;48.024;16.296;2022-09-13T06:56:13;37.70;46.00
4693;DHT22;11710;48.024;16.296;2022-09-13T06:58:42;36.30;48.00
4693;DHT22;11710;48.024;16.296;2022-09-13T07:01:12;34.80;49.30
4693;DHT22;11710;48.024;16.296;2022-09-13T07:03:41;33.40;51.50
4693;DHT22;11710;48.024;16.296;2022-09-13T07:06:10;32.20;53.80
4693;DHT22;11710;48.024;16.296;2022-09-13T07:08:37;31.20;57.40
4693;DHT22;11710;48.024;16.296;2022-09-13T07:11:05;30.50;58.10
4693;DHT22;11710;48.024;16.296;2022-09-13T07:13:32;30.10;58.20
4693;DHT22;11710;48.024;16.296;2022-09-13T07:16:01;29.60;58.80
4693;DHT22;11710;48.024;16.296;2022-09-13T07:18:29;29.10;59.90
4693;DHT22;11710;48.024;16.296;2022-09-13T07:21:00;28.20;61.00
4693;DHT22;11710;48.024;16.296;2022-09-13T07:23:32;26.80;63.60
4693;DHT22;11710;48.024;16.296;2022-09-13T07:26:00;26.20;65.80
4693;DHT22;11710;48.024;16.296;2022-09-13T07:28:32;25.20;68.00
4693;DHT22;11710;48.024;16.296;2022-09-13T07:31:05;24.60;69.90
4693;DHT22;11710;48.024;16.296;2022-09-13T07:33:34;24.20;71.00
4693;DHT22;11710;48.024;16.296;2022-09-13T07:36:01;23.50;72.90
4693;DHT22;11710;48.024;16.296;2022-09-13T07:38:31;23.10;75.00
4693;DHT22;11710;48.024;16.296;2022-09-13T07:40:58;23.10;77.00
4693;DHT22;11710;48.024;16.296;2022-09-13T07:43:26;23.20;77.70
4693;DHT22;11710;48.024;16.296;2022-09-13T07:45:56;23.40;77.30
4693;DHT22;11710;48.024;16.296;2022-09-13T07:48:23;23.50;77.70
4693;DHT22;11710;48.024;16.296;2022-09-13T07:51:00;23.40;78.40
4693;DHT22;11710;48.024;16.296;2022-09-13T07:53:28;23.30;78.00
4693;DHT22;11710;48.024;16.296;2022-09-13T07:55:59;22.90;78.80
4693;DHT22;11710;48.024;16.296;2022-09-13T07:58:27;22.80;80.60
4693;DHT22;11710;48.024;16.296;2022-09-13T08:00:54;22.60;81.20
4693;DHT22;11710;48.024;16.296;2022-09-13T08:03:20;22.50;82.20
4693;DHT22;11710;48.024;16.296;2022-09-13T08:05:47;22.70;83.00
4693;DHT22;11710;48.024;16.296;2022-09-13T08:08:16;22.70;83.10
4693;DHT22;11710;48.024;16.296;2022-09-13T08:13:11;22.90;82.60
4693;DHT22;11710;48.024;16.296;2022-09-13T08:15:38;22.70;83.10
4693;DHT22;11710;48.024;16.296;2022-09-13T08:18:05;22.60;84.60
4693;DHT22;11710;48.024;16.296;2022-09-13T08:20:35;22.70;83.40
4693;DHT22;11710;48.024;16.296;2022-09-13T08:23:01;22.90;84.00
4693;DHT22;11710;48.024;16.296;2022-09-13T08:25:31;23.20;83.40
4693;DHT22;11710;48.024;16.296;2022-09-13T08:27:59;23.60;83.20
4693;DHT22;11710;48.024;16.296;2022-09-13T08:30:26;23.80;82.80
4693;DHT22;11710;48.024;16.296;2022-09-13T08:32:58;24.20;83.00
4693;DHT22;11710;48.024;16.296;2022-09-13T08:35:25;24.80;81.70
4693;DHT22;11710;48.024;16.296;2022-09-13T08:37:52;25.40;80.70
4693;DHT22;11710;48.024;16.296;2022-09-13T08:40:20;25.90;77.60
4693;DHT22;11710;48.024;16.296;2022-09-13T08:42:53;26.10;77.20
4693;DHT22;11710;48.024;16.296;2022-09-13T08:45:22;26.50;77.00
4693;DHT22;11710;48.024;16.296;2022-09-13T08:47:52;27.00;75.30
4693;DHT22;11710;48.024;16.296;2022-09-13T08:50:25;27.60;74.80
4693;DHT22;11710;48.024;16.296;2022-09-13T08:53:11;28.30;73.60
4693;DHT22;11710;48.024;16.296;2022-09-13T08:55:48;29.00;70.90
4693;DHT22;11710;48.024;16.296;2022-09-13T08:58:47;29.60;70.20
4693;DHT22;11710;48.024;16.296;2022-09-13T09:01:26;30.20;68.30
4693;DHT22;11710;48.024;16.296;2022-09-13T09:04:00;30.10;68.00
4693;DHT22;11710;48.024;16.296;2022-09-13T09:06:28;29.80;67.90
4693;DHT22;11710;48.024;16.296;2022-09-13T09:08:58;29.80;67.90
4693;DHT22;11710;48.024;16.296;2022-09-13T09:11:30;29.50;67.80
4693;DHT22;11710;48.024;16.296;2022-09-13T09:14:05;29.20;68.20
4693;DHT22;11710;48.024;16.296;2022-09-13T09:16:36;29.50;68.60
4693;DHT22;11710;48.024;16.296;2022-09-13T09:19:15;30.00;67.30
4693;DHT22;11710;48.024;16.296;2022-09-13T09:21:45;30.60;66.10
4693;DHT22;11710;48.024;16.296;2022-09-13T09:24:17;31.00;65.00
4693;DHT22;11710;48.024;16.296;2022-09-13T09:26:45;31.70;64.40
4693;DHT22;11710;48.024;16.296;2022-09-13T09:29:17;32.90;63.10
4693;DHT22;11710;48.024;16.296;2022-09-13T09:31:52;33.90;62.10
4693;DHT22;11710;48.024;16.296;2022-09-13T09:34:26;34.60;60.40
4693;DHT22;11710;48.024;16.296;2022-09-13T09:37:05;35.20;58.50
4693;DHT22;11710;48.024;16.296;2022-09-13T09:39:33;35.10;59.10
4693;DHT22;11710;48.024;16.296;2022-09-13T09:42:03;35.30;57.80
4693;DHT22;11710;48.024;16.296;2022-09-13T09:44:32;35.90;57.90
4693;DHT22;11710;48.024;16.296;2022-09-13T09:47:03;36.70;56.30
4693;DHT22;11710;48.024;16.296;2022-09-13T09:49:36;36.30;56.60
4693;DHT22;11710;48.024;16.296;2022-09-13T09:52:25;36.20;56.30
4693;DHT22;11710;48.024;16.296;2022-09-13T09:54:57;35.80;56.40
4693;DHT22;11710;48.024;16.296;2022-09-13T09:57:49;34.70;57.70
4693;DHT22;11710;48.024;16.296;2022-09-13T10:00:18;33.70;58.20
4693;DHT22;11710;48.024;16.296;2022-09-13T10:02:46;32.60;60.30
4693;DHT22;11710;48.024;16.296;2022-09-13T10:05:17;31.40;61.00
4693;DHT22;11710;48.024;16.296;2022-09-13T10:07:52;30.10;62.70
4693;DHT22;11710;48.024;16.296;2022-09-13T10:10:23;29.70;64.30
4693;DHT22;11710;48.024;16.296;2022-09-13T10:12:53;29.80;64.70
4693;DHT22;11710;48.024;16.296;2022-09-13T10:15:25;30.00;64.50
4693;DHT22;11710;48.024;16.296;2022-09-13T10:18:05;30.10;65.80
4693;DHT22;11710;48.024;16.296;2022-09-13T10:20:33;30.40;65.40
4693;DHT22;11710;48.024;16.296;2022-09-13T10:23:16;30.10;64.20
4693;DHT22;11710;48.024;16.296;2022-09-13T10:25:45;29.70;65.30
4693;DHT22;11710;48.024;16.296;2022-09-13T10:28:21;29.50;65.40
4693;DHT22;11710;48.024;16.296;2022-09-13T10:30:54;29.20;66.30
4693;DHT22;11710;48.024;16.296;2022-09-13T10:33:26;28.90;66.30
4693;DHT22;11710;48.024;16.296;2022-09-13T10:35:57;28.90;67.00
4693;DHT22;11710;48.024;16.296;2022-09-13T10:38:29;28.80;66.40
4693;DHT22;11710;48.024;16.296;2022-09-13T10:40:57;28.60;67.00
4693;DHT22;11710;48.024;16.296;2022-09-13T10:43:27;28.50;67.30
4693;DHT22;11710;48.024;16.296;2022-09-13T10:45:57;28.20;67.80
4693;DHT22;11710;48.024;16.296;2022-09-13T10:48:28;28.00;67.70
4693;DHT22;11710;48.024;16.296;2022-09-13T10:51:05;28.10;67.60
4693;DHT22;11710;48.024;16.296;2022-09-13T10:53:35;28.20;67.20
4693;DHT22;11710;48.024;16.296;2022-09-13T10:56:03;28.10;68.00
4693;DHT22;11710;48.024;16.296;2022-09-13T10:58:30;28.20;67.70
4693;DHT22;11710;48.024;16.296;2022-09-13T11:01:28;28.30;67.90
4693;DHT22;11710;48.024;16.296;2022-09-13T11:04:35;28.40;68.40
4693;DHT22;11710;48.024;16.296;2022-09-13T11:07:16;28.70;67.20
4693;DHT22;11710;48.024;16.296;2022-09-13T11:09:50;28.50;66.70
4693;DHT22;11710;48.024;16.296;2022-09-13T11:12:25;28.10;67.30
4693;DHT22;11710;48.024;16.296;2022-09-13T11:15:03;27.50;67.70
4693;DHT22;11710;48.024;16.296;2022-09-13T11:17:54;27.10;69.30
4693;DHT22;11710;48.024;16.296;2022-09-13T11:20:37;27.10;71.30
4693;DHT22;11710;48.024;16.296;2022-09-13T11:26:26;26.30;72.20
4693;DHT22;11710;48.024;16.296;2022-09-13T11:29:02;26.10;72.40
4693;DHT22;11710;48.024;16.296;2022-09-13T11:31:41;26.00;73.10
4693;DHT22;11710;48.024;16.296;2022-09-13T11:34:20;25.90;74.00
4693;DHT22;11710;48.024;16.296;2022-09-13T11:37:05;26.00;73.70
4693;DHT22;11710;48.024;16.296;2022-09-13T11:39:37;26.10;73.40
4693;DHT22;11710;48.024;16.296;2022-09-13T11:42:17;26.30;72.90
4693;DHT22;11710;48.024;16.296;2022-09-13T11:45:07;26.40;72.80
4693;DHT22;11710;48.024;16.296;2022-09-13T11:47:47;26.40;73.10
4693;DHT22;11710;48.024;16.296;2022-09-13T11:50:35;26.60;72.40
4693;DHT22;11710;48.024;16.296;2022-09-13T11:53:30;26.40;72.80
4693;DHT22;11710;48.024;16.296;2022-09-13T11:56:05;26.30;72.80
4693;DHT22;11710;48.024;16.296;2022-09-13T11:58:38;26.40;73.50
4693;DHT22;11710;48.024;16.296;2022-09-13T12:01:07;26.60;73.50
4693;DHT22;11710;48.024;16.296;2022-09-13T12:03:39;26.70;72.40
4693;DHT22;11710;48.024;16.296;2022-09-13T12:06:16;26.80;72.50
4693;DHT22;11710;48.024;16.296;2022-09-13T12:08:47;26.90;72.10
4693;DHT22;11710;48.024;16.296;2022-09-13T12:11:18;27.00;72.40
4693;DHT22;11710;48.024;16.296;2022-09-13T12:13:50;27.10;72.60
4693;DHT22;11710;48.024;16.296;2022-09-13T12:16:21;27.00;71.90
4693;DHT22;11710;48.024;16.296;2022-09-13T12:18:51;26.90;71.80
4693;DHT22;11710;48.024;16.296;2022-09-13T12:21:23;26.90;71.70
4693;DHT22;11710;48.024;16.296;2022-09-13T12:23:57;26.80;72.00
4693;DHT22;11710;48.024;16.296;2022-09-13T12:26:32;26.80;72.10
4693;DHT22;11710;48.024;16.296;2022-09-13T12:29:06;26.80;72.20
4693;DHT22;11710;48.024;16.296;2022-09-13T12:31:36;26.60;72.50
4693;DHT22;11710;48.024;16.296;2022-09-13T12:34:05;26.50;73.10
4693;DHT22;11710;48.024;16.296;2022-09-13T12:43:14;26.30;73.40
4693;DHT22;11710;48.024;16.296;2022-09-13T12:51:54;25.70;74.70
4693;DHT22;11710;48.024;16.296;2022-09-13T12:54:46;25.60;75.30
4693;DHT22;11710;48.024;16.296;2022-09-13T12:57:25;25.80;75.10
4693;DHT22;11710;48.024;16.296;2022-09-13T13:00:12;25.90;75.30
4693;DHT22;11710;48.024;16.296;2022-09-13T13:02:49;25.90;74.30
4693;DHT22;11710;48.024;16.296;2022-09-13T13:05:25;26.10;74.40
4693;DHT22;11710;48.024;16.296;2022-09-13T13:07:56;26.20;73.90
4693;DHT22;11710;48.024;16.296;2022-09-13T13:10:28;26.40;74.20
4693;DHT22;11710;48.024;16.296;2022-09-13T13:13:08;26.50;73.50
4693;DHT22;11710;48.024;16.296;2022-09-13T13:15:58;26.30;73.10
4693;DHT22;11710;48.024;16.296;2022-09-13T13:18:29;26.20;74.20
4693;DHT22;11710;48.024;16.296;2022-09-13T13:27:38;25.50;75.20
4693;DHT22;11710;48.024;16.296;2022-09-13T13:33:26;25.30;75.80
4693;DHT22;11710;48.024;16.296;2022-09-13T13:35:53;25.30;76.20
4693;DHT22;11710;48.024;16.296;2022-09-13T13:38:50;25.30;76.30
4693;DHT22;11710;48.024;16.296;2022-09-13T13:41:41;25.30;76.10
4693;DHT22;11710;48.024;16.296;2022-09-13T13:50:27;25.30;75.60
4693;DHT22;11710;48.024;16.296;2022-09-13T13:52:56;25.40;76.40
4693;DHT22;11710;48.024;16.296;2022-09-13T13:55:42;25.50;75.20
4693;DHT22;11710;48.024;16.296;2022-09-13T13:58:32;25.50;75.50
4693;DHT22;11710;48.024;16.296;2022-09-13T14:01:04;25.80;75.90
4693;DHT22;11710;48.024;16.296;2022-09-13T14:06:28;25.60;75.60
4693;DHT22;11710;48.024;16.296;2022-09-13T14:09:18;25.70;75.70
4693;DHT22;11710;48.024;16.296;2022-09-13T14:12:00;25.60;75.70
4693;DHT22;11710;48.024;16.296;2022-09-13T14:14:48;25.50;75.50
4693;DHT22;11710;48.024;16.296;2022-09-13T14:17:54;25.40;75.90
4693;DHT22;11710;48.024;16.296;2022-09-13T14:20:25;25.40;75.40
4693;DHT22;11710;48.024;16.296;2022-09-13T14:23:10;25.40;75.60
4693;DHT22;11710;48.024;16.296;2022-09-13T14:25:37;25.30;75.60
4693;DHT22;11710;48.024;16.296;2022-09-13T14:28:05;25.40;75.00
4693;DHT22;11710;48.024;16.296;2022-09-13T14:30:35;25.40;75.10
4693;DHT22;11710;48.024;16.296;2022-09-13T14:33:03;25.40;74.50
4693;DHT22;11710;48.024;16.296;2022-09-13T14:35:32;25.40;74.80
4693;DHT22;11710;48.024;16.296;2022-09-13T14:38:15;25.30;75.80
4693;DHT22;11710;48.024;16.296;2022-09-13T14:40:47;25.40;74.40
4693;DHT22;11710;48.024;16.296;2022-09-13T14:43:15;25.30;74.70
4693;DHT22;11710;48.024;16.296;2022-09-13T14:45:44;25.10;74.70
4693;DHT22;11710;48.024;16.296;2022-09-13T14:48:16;25.10;74.70
4693;DHT22;11710;48.024;16.296;2022-09-13T14:50:48;25.00;74.10
4693;DHT22;11710;48.024;16.296;2022-09-13T14:53:21;24.90;74.60
4693;DHT22;11710;48.024;16.296;2022-09-13T14:55:51;24.80;75.20
4693;DHT22;11710;48.024;16.296;2022-09-13T14:58:21;24.80;75.00
4693;DHT22;11710;48.024;16.296;2022-09-13T15:00:55;24.80;75.10
4693;DHT22;11710;48.024;16.296;2022-09-13T15:03:24;24.70;74.80
4693;DHT22;11710;48.024;16.296;2022-09-13T15:05:53;24.60;75.20
4693;DHT22;11710;48.024;16.296;2022-09-13T15:08:35;24.60;75.20
4693;DHT22;11710;48.024;16.296;2022-09-13T15:11:13;24.60;75.70
4693;DHT22;11710;48.024;16.296;2022-09-13T15:13:40;24.70;75.90
4693;DHT22;11710;48.024;16.296;2022-09-13T15:16:23;24.70;75.20
4693;DHT22;11710;48.024;16.296;2022-09-13T15:19:13;24.80;75.10
4693;DHT22;11710;48.024;16.296;2022-09-13T15:21:41;24.80;74.20
4693;DHT22;11710;48.024;16.296;2022-09-13T15:24:19;24.80;74.20
4693;DHT22;11710;48.024;16.296;2022-09-13T15:26:46;24.80;74.30
4693;DHT22;11710;48.024;16.296;2022-09-13T15:29:17;24.80;74.50
4693;DHT22;11710;48.024;16.296;2022-09-13T15:31:44;24.80;74.40
4693;DHT22;11710;48.024;16.296;2022-09-13T15:34:20;24.80;74.70
4693;DHT22;11710;48.024;16.296;2022-09-13T15:36:49;24.80;74.60
4693;DHT22;11710;48.024;16.296;2022-09-13T15:39:28;24.70;74.40
4693;DHT22;11710;48.024;16.296;2022-09-13T15:41:57;24.60;74.70
4693;DHT22;11710;48.024;16.296;2022-09-13T15:44:25;24.50;74.80
4693;DHT22;11710;48.024;16.296;2022-09-13T15:46:55;24.50;74.80
4693;DHT22;11710;48.024;16.296;2022-09-13T15:49:24;24.40;74.80
4693;DHT22;11710;48.024;16.296;2022-09-13T15:51:54;24.40;75.00
4693;DHT22;11710;48.024;16.296;2022-09-13T15:54:22;24.30;75.30
4693;DHT22;11710;48.024;16.296;2022-09-13T15:56:50;24.30;75.00
4693;DHT22;11710;48.024;16.296;2022-09-13T15:59:19;24.30;75.40
4693;DHT22;11710;48.024;16.296;2022-09-13T16:01:47;24.30;75.90
4693;DHT22;11710;48.024;16.296;2022-09-13T16:04:14;24.40;75.80
4693;DHT22;11710;48.024;16.296;2022-09-13T16:06:42;24.40;76.00
4693;DHT22;11710;48.024;16.296;2022-09-13T16:09:16;24.30;76.50
4693;DHT22;11710;48.024;16.296;2022-09-13T16:11:44;24.40;76.30
4693;DHT22;11710;48.024;16.296;2022-09-13T16:14:12;24.30;76.50
4693;DHT22;11710;48.024;16.296;2022-09-13T16:16:39;24.20;76.80
4693;DHT22;11710;48.024;16.296;2022-09-13T16:19:09;24.20;77.80
4693;DHT22;11710;48.024;16.296;2022-09-13T16:21:39;24.20;78.40
4693;DHT22;11710;48.024;16.296;2022-09-13T16:24:06;24.20;80.20
4693;DHT22;11710;48.024;16.296;2022-09-13T16:26:33;24.20;79.70
4693;DHT22;11710;48.024;16.296;2022-09-13T16:29:00;24.20;79.30
4693;DHT22;11710;48.024;16.296;2022-09-13T16:31:29;24.10;79.50
4693;DHT22;11710;48.024;16.296;2022-09-13T16:33:56;24.10;80.20
4693;DHT22;11710;48.024;16.296;2022-09-13T16:36:22;24.00;79.50
4693;DHT22;11710;48.024;16.296;2022-09-13T16:38:52;24.00;80.00
4693;DHT22;11710;48.024;16.296;2022-09-13T16:41:19;24.00;80.20
4693;DHT22;11710;48.024;16.296;2022-09-13T16:43:45;23.90;80.60
4693;DHT22;11710;48.024;16.296;2022-09-13T16:46:13;23.90;81.00